LDPLLIPH

Guest
Details From LDPL - Pula
To LIPH - TREVISO
Flight Number -
Tags generated
Created
Modified
Stats Distance 86 nm / 159 km
Max Altitude 8,700 ft / 2,652 m
Waypoints 4
Social Downloads 0
Likes 0
Share VATSIM

Download

Looking for another format? Having issues loading an existing format? Contact us
Advertisement - Login to hide

Notes

Basic altitude profile: - Ascent Rate: 2500ft/min - Ascent Speed: 250kts - Cruise Altitude: 35000ft - Cruise Speed: 420kts - Descent Rate: 1500ft/min - Descent Speed: 250kts Options: - Use NATs: yes - Use PACOTS: yes - Use low airways: yes - Use high airways: yes

Route

LDPL BAKSO P11 ROTAR LIPH

ID Type Via Altitude Latitude Longitude Leg Dist Tot Dist Heading (true) Name
O LDPL APT - 0 ft / 0 m 44.89353˚ 13.92216˚ - 0 nm - Pula
BAKSO FIX - 7,400 ft / 2,256 m 45.06389˚ 13.49444˚ 20 nm 20 nm 300° / 299° -
ROTAR FIX P11 (AWY-LO) 8,700 ft / 2,652 m 45.26278˚ 12.99556˚ 24 nm 45 nm 300° / 299° -
O LIPH APT - 0 ft / 0 m 45.64850˚ 12.19414˚ 40 nm 86 nm 305° / 304° TREVISO

Altitude Profile

Advertisement - Login to hide

LDPL

Details ICAO LDPL (PUY)
Name Pula
Region Croatia
Timezone Europe/Zagreb (UTC+1.0)
Stats Elevation 274 ft / 84 m (AMSL)
Location 44.893531° 13.922156°
Runways 1
Magnetic Variation 3.474° E

METAR

LDPL 151000Z 21010KT 180V240 9999 BKN058 15/09 Q1001 NOSIG

Decode

TAF

TAF TAF LDPL 150527Z 1506/1606 20010KT 9999 BKN040 TX15/1513Z TN05/1605Z PROB30 TEMPO 1509/1515 TSRA FEW025CB BKN025 BECMG 1513/1515 VRB02KT TEMPO 1515/1606 RA BKN013 PROB30 TEMPO 1518/1602 TSRA FEW020CB BKN025 BECMG 1523/1601 30010KT BECMG 1601/1603 06015KT

Decode

Departure Runways

ID Width Length Bearing (true) Bearing (mag) Surface Threshold Offset Overrun Length
09 148 ft / 45 m 9,601 ft / 2,926 m 88.24° 84.77° Asphalt 250 ft / 76 m 0 ft / 0 m
27 148 ft / 45 m 9,601 ft / 2,926 m 268.27° 264.80° Asphalt 250 ft / 76 m 0 ft / 0 m

LIPH

Details ICAO LIPH (TSF)
Name TREVISO
Region Italy
Timezone Europe/Rome (UTC+1.0)
Stats Elevation 59 ft / 18 m (AMSL)
Location 45.648499° 12.194136°
Runways 1
Magnetic Variation 3.152° E

METAR

LIPH 150950Z VRB01KT 9999 SCT060 08/05 Q0999

Decode

TAF

TAF LIPH 150500Z 1506/1606 VRB06KT 8000 BKN040 TEMPO 1506/1508 1500 BCFG BKN002

Decode

Destination Runways

ID Width Length Bearing (true) Bearing (mag) Surface Threshold Offset Overrun Length
07 144 ft / 44 m 7,919 ft / 2,414 m 69.18° 66.03° Asphalt 254 ft / 77 m 975 ft / 297 m
25 144 ft / 44 m 7,919 ft / 2,414 m 249.20° 246.05° Asphalt 389 ft / 119 m 0 ft / 0 m

Approach Navaids

Runway Type Ident Frequency Range Bearing (true) Bearing (mag) Slope Elevation
07 Localiser TRE 109.30 MHz 18 nm / 33 km 69.20° 66.05° - 51 ft / 16 m (AMSL)
07 Glidescope TRE 109.30 MHz 10 nm / 19 km 69.19° 66.04° 3.00° 56 ft / 17 m (AMSL)

Popular Alternatives